Chiang Mai, Thailand

10:08 PM ICT on February 11, 2016 (GMT +0700)
ThaiWx Station | | Change Station
CLOSE
Current Station
Personal Weather Station
Location: Chiang Mai, Pa Daet
Elevation: 1007 ft
Nearby Weather Stations

Elev 1007 ft 18.77 °N, 98.97 °E | Updated 1 minute ago

Clear
Clear
68.4 °F
Feels Like 68.4 °F
N
0.0
Wind Variable Wind from SSE
Gusts 0.0 mph

Today
High -- | Low -- °F
--% Chance of Precip.
Yesterday
High -- | Low -- °F
Precip. -- in
Pressure 29.92 in
Visibility 5.6 miles
Clouds
Dew Point 55 °F
Humidity 62%
Rainfall 0.00 in
Snow Depth Not available.
6:54 AM 6:22 PM
Waxing Crescent, 12% visible
METAR VTCC 111500Z 00000KT 9000 NSC 20/09 Q1013 A2992 NOSIG
Pressure 29.92 in
Visibility 5.6 miles
Clouds
Dew Point 55 °F
Humidity 62%
Rainfall 0.00 in
Snow Depth Not available.
6:54 AM 6:22 PM
Waxing Crescent, 12% visible
METAR VTCC 111500Z 00000KT 9000 NSC 20/09 Q1013 A2992 NOSIG

10-Day Weather Forecast

No radar image for this location.
×

Almanac

Astronomy

Feb. 11, 2016 Rise Set
Actual Time
Civil Twilight
Nautical Twilight
Astronomical Twilight
Moon
Length of Visible Light
Length of Day
Tomorrow will be .
, % of the Moon is Illuminated

Today's Extremes

Country Highs Country Lows

Community

WunderPhotos

Upload Photos

1,892,059 photos uploaded!

WunderBlog® & News

Nearby

Air Quality

  Air Quality AQ Index Pollutant
Not available.

Snow Depth

Station Depth Elevation

Earthquake Activity

City Distance Mag. Time & Date
Minimum magnitude displayed is 2.5.

Coastal Water Temperatures

Place Temperature

Stations

Nearby Weather Stations

Station Location Temp. Windchill Dew Point Humidity Wind Precip. Elev Updated Type